Time;durP1;ratioP1;P1;durP2;ratioP2;P2;SDS_P1;SDS_P2;PMS_P1;PMS_P2;Temp;Humidity;BMP_temperature;BMP_pressure;BME280_temperature;BME280_humidity;BME280_pressure;Samples;Min_cycle;Max_cycle;Signal;HPM_P1;HPM_P2
2022/08/22 00:02:12;;;;;;;5.15;3.25;;;16.40;99.90;;;;;;4873047;29;20057;-68
2022/08/22 00:05:09;;;;;;;5.82;2.55;;;16.40;99.90;;;;;;4864554;29;20407;-67
2022/08/22 00:07:59;;;;;;;9.02;3.00;;;16.40;99.90;;;;;;4871727;29;20121;-68
2022/08/22 00:10:42;;;;;;;5.53;2.70;;;16.40;99.90;;;;;;4886845;29;20056;-68
2022/08/22 00:13:16;;;;;;;;;;;16.40;99.90;;;;;;4895217;29;20057;-68
2022/08/22 00:15:48;;;;;;;5.82;2.85;;;16.30;99.90;;;;;;4893958;29;19978;-68
2022/08/22 00:18:44;;;;;;;6.70;2.92;;;16.30;99.90;;;;;;4896752;29;20056;-68
2022/08/22 00:21:17;;;;;;;4.40;2.70;;;16.30;99.90;;;;;;4892069;29;20053;-68
2022/08/22 00:23:58;;;;;;;7.20;2.95;;;16.30;99.90;;;;;;4896844;29;20060;-68
2022/08/22 00:26:43;;;;;;;8.85;3.42;;;16.30;99.90;;;;;;4895698;29;20465;-68
2022/08/22 00:29:23;;;;;;;4.45;2.53;;;16.20;99.90;;;;;;4879866;29;20185;-68
2022/08/22 00:32:22;;;;;;;7.30;3.15;;;16.30;99.90;;;;;;4875954;29;20085;-68
2022/08/22 00:35:31;;;;;;;8.18;3.50;;;16.20;99.90;;;;;;4891385;29;20079;-68
2022/08/22 00:38:14;;;;;;;6.15;2.63;;;16.20;99.90;;;;;;4890492;29;20067;-68
2022/08/22 00:40:55;;;;;;;4.35;2.97;;;16.20;99.90;;;;;;4891792;29;20068;-68
2022/08/22 00:43:46;;;;;;;7.60;3.25;;;16.20;99.90;;;;;;4888440;29;20064;-68
2022/08/22 00:46:21;;;;;;;6.93;3.60;;;16.20;99.90;;;;;;4886838;29;20086;-68
2022/08/22 00:49:11;;;;;;;10.40;3.22;;;16.30;99.90;;;;;;4895700;29;20139;-68
2022/08/22 00:52:07;;;;;;;6.07;3.55;;;16.30;99.90;;;;;;4895015;29;20059;-68
2022/08/22 00:54:50;;;;;;;8.48;3.72;;;16.20;99.90;;;;;;4861327;29;20056;-68
2022/08/22 00:57:19;;;;;;;6.22;3.72;;;16.20;99.90;;;;;;4885866;29;20052;-68
2022/08/22 00:59:50;;;;;;;7.30;3.58;;;16.30;99.90;;;;;;4889475;29;20048;-68
2022/08/22 01:02:49;;;;;;;7.95;3.83;;;16.20;99.90;;;;;;4891454;29;20057;-68
2022/08/22 01:05:48;;;;;;;8.73;3.72;;;16.20;99.90;;;;;;4886487;29;20088;-68
2022/08/22 01:08:19;;;;;;;7.72;3.25;;;16.20;99.90;;;;;;4889019;29;20096;-68
2022/08/22 01:10:53;;;;;;;5.78;3.00;;;16.20;99.90;;;;;;4889375;29;20065;-68
2022/08/22 01:13:45;;;;;;;8.05;3.15;;;16.20;99.90;;;;;;4882437;29;20061;-68
2022/08/22 01:16:47;;;;;;;6.13;3.13;;;16.10;99.90;;;;;;4880242;29;20061;-68
2022/08/22 01:19:28;;;;;;;5.70;3.35;;;16.10;99.90;;;;;;4882262;29;20048;-68
2022/08/22 01:22:12;;;;;;;8.23;3.30;;;16.10;99.90;;;;;;4865251;29;20135;-68
2022/08/22 01:25:21;;;;;;;8.25;3.55;;;16.10;99.90;;;;;;4884777;29;20060;-68
2022/08/22 01:27:59;;;;;;;7.20;3.70;;;16.10;99.90;;;;;;4883104;29;20053;-68
2022/08/22 01:30:52;;;;;;;9.00;3.65;;;16.00;99.90;;;;;;4866690;29;20512;-68
2022/08/22 01:33:52;;;;;;;6.20;3.42;;;16.00;99.90;;;;;;4881694;29;20124;-68
2022/08/22 01:36:56;;;;;;;8.52;4.32;;;16.00;99.90;;;;;;4885707;29;20138;-68
2022/08/22 01:39:57;;;;;;;5.80;3.60;;;16.00;99.90;;;;;;4899814;29;20057;-68
2022/08/22 01:42:42;;;;;;;8.38;3.58;;;16.00;99.90;;;;;;4888102;29;20071;-68
2022/08/22 01:45:39;;;;;;;6.68;3.22;;;15.90;99.90;;;;;;4873408;29;20063;-68
2022/08/22 01:48:04;;;;;;;5.95;3.28;;;16.00;99.90;;;;;;4884845;29;20397;-68
2022/08/22 01:50:38;;;;;;;7.72;3.42;;;15.90;99.90;;;;;;4881753;29;20082;-68
2022/08/22 01:53:29;;;;;;;11.90;4.38;;;16.00;99.90;;;;;;4877921;29;20509;-68
2022/08/22 01:56:05;;;;;;;7.65;4.03;;;15.90;99.90;;;;;;4899193;29;20509;-68
2022/08/22 01:58:34;;;;;;;5.88;3.70;;;16.00;99.90;;;;;;4899077;29;20059;-68
2022/08/22 02:01:18;;;;;;;5.20;3.75;;;16.00;99.90;;;;;;4899158;29;20052;-68
2022/08/22 02:04:03;;;;;;;7.65;3.78;;;15.90;99.90;;;;;;4867526;29;20061;-68
2022/08/22 02:06:45;;;;;;;7.80;4.30;;;15.90;99.90;;;;;;4870701;29;20075;-68
2022/08/22 02:09:31;;;;;;;6.82;4.10;;;15.90;99.90;;;;;;4899049;29;20060;-68
2022/08/22 02:12:20;;;;;;;8.90;4.35;;;15.80;99.90;;;;;;4881797;29;20152;-68
2022/08/22 02:15:01;;;;;;;7.63;3.65;;;15.90;99.90;;;;;;4880834;29;20107;-68
2022/08/22 02:17:30;;;;;;;6.15;3.83;;;15.90;99.90;;;;;;4857288;29;20049;-68
2022/08/22 02:20:16;;;;;;;7.47;3.92;;;15.90;99.90;;;;;;4880132;29;20052;-68
2022/08/22 02:34:56;;;;;;;10.75;3.70;;;15.90;99.90;;;;;;4897703;29;20063;-68
2022/08/22 02:37:50;;;;;;;8.63;4.00;;;15.90;99.90;;;;;;4896445;29;20075;-68
2022/08/22 02:40:21;;;;;;;9.15;3.72;;;15.90;99.90;;;;;;4880249;29;20057;-68
2022/08/22 02:43:17;;;;;;;11.10;4.20;;;15.80;99.90;;;;;;4890290;29;20049;-68
2022/08/22 02:46:16;;;;;;;6.88;3.70;;;15.80;99.90;;;;;;4878310;29;20140;-68
2022/08/22 02:49:01;;;;;;;5.93;3.90;;;15.80;99.90;;;;;;4879776;29;20053;-68
2022/08/22 02:51:45;;;;;;;11.40;4.43;;;15.80;99.90;;;;;;4894335;29;20045;-68
2022/08/22 02:54:29;;;;;;;9.48;4.57;;;15.80;99.90;;;;;;4880215;29;20049;-68
2022/08/22 03:08:34;;;;;;;9.85;4.22;;;15.70;99.90;;;;;;4896801;29;20035;-68
2022/08/22 03:11:25;;;;;;;13.98;5.03;;;15.70;99.90;;;;;;4897069;29;20457;-69
2022/08/22 03:13:56;;;;;;;5.90;4.38;;;15.70;99.90;;;;;;4863304;29;20112;-68
2022/08/22 03:17:03;;;;;;;8.93;4.17;;;15.70;99.90;;;;;;4891666;29;20076;-68
2022/08/22 03:19:47;;;;;;;8.68;4.50;;;15.70;99.90;;;;;;4825326;29;20066;-68
2022/08/22 03:22:21;;;;;;;9.15;4.28;;;15.70;99.90;;;;;;4812422;29;20058;-68
2022/08/22 03:25:06;;;;;;;7.38;4.10;;;15.70;99.90;;;;;;4855750;29;20443;-67
2022/08/22 03:27:54;;;;;;;7.30;4.30;;;15.70;99.90;;;;;;4896945;29;20045;-67
2022/08/22 03:30:42;;;;;;;8.25;4.18;;;15.90;99.90;;;;;;4881492;29;20051;-69
2022/08/22 03:33:15;;;;;;;11.10;4.82;;;15.70;99.90;;;;;;4882964;29;20059;-68
2022/08/22 03:35:44;;;;;;;9.57;4.57;;;15.60;99.90;;;;;;4898260;29;20139;-68
2022/08/22 03:38:21;;;;;;;9.00;4.80;;;15.60;99.90;;;;;;4880161;29;20052;-68
2022/08/22 03:41:15;;;;;;;10.30;4.40;;;15.60;99.90;;;;;;4880686;29;20064;-68
2022/08/22 03:44:34;;;;;;;10.23;4.75;;;15.60;99.90;;;;;;4884141;29;20072;-68
2022/08/22 03:47:16;;;;;;;8.98;4.20;;;15.60;99.90;;;;;;4882007;29;20510;-68
2022/08/22 03:50:16;;;;;;;8.27;4.25;;;15.60;99.90;;;;;;4883237;29;20540;-68
2022/08/22 03:53:20;;;;;;;11.30;4.70;;;15.60;99.90;;;;;;4878381;29;20068;-68
2022/08/22 03:56:31;;;;;;;8.93;4.72;;;15.70;99.90;;;;;;4880973;29;20412;-68
2022/08/22 03:59:18;;;;;;;7.22;4.10;;;15.70;99.90;;;;;;4864493;29;20056;-68
2022/08/22 04:02:00;;;;;;;9.32;4.70;;;15.70;99.90;;;;;;4896678;29;20489;-68
2022/08/22 04:04:48;;;;;;;8.27;4.47;;;15.70;99.90;;;;;;4894241;29;21705;-69
2022/08/22 04:07:38;;;;;;;7.93;4.40;;;15.60;99.90;;;;;;4878195;29;20449;-68
2022/08/22 04:10:27;;;;;;;10.68;4.55;;;15.60;99.90;;;;;;4876829;29;20061;-68
2022/08/22 04:13:22;;;;;;;8.23;3.90;;;15.60;99.90;;;;;;4873314;29;20061;-68
2022/08/22 04:16:10;;;;;;;9.05;4.55;;;15.60;99.90;;;;;;4880007;29;20060;-68
2022/08/22 04:18:51;;;;;;;9.55;4.40;;;15.60;99.90;;;;;;4874402;29;20535;-68
2022/08/22 04:24:55;;;;;;;8.02;4.82;;;15.60;99.90;;;;;;4890543;29;20483;-68
2022/08/22 04:36:09;;;;;;;10.82;5.28;;;15.70;99.90;;;;;;4863583;29;20120;-68
2022/08/22 04:39:02;;;;;;;9.15;4.82;;;15.70;99.90;;;;;;4877100;29;20044;-68
2022/08/22 04:42:13;;;;;;;10.65;4.90;;;15.70;99.90;;;;;;4878364;29;20053;-68
2022/08/22 04:45:11;;;;;;;9.65;4.97;;;15.70;99.90;;;;;;4859913;29;20053;-68
2022/08/22 04:51:34;;;;;;;7.35;4.15;;;15.90;99.90;;;;;;4861701;29;20068;-68
2022/08/22 04:54:30;;;;;;;10.25;4.65;;;15.80;99.90;;;;;;4864014;29;20547;-68
2022/08/22 04:57:14;;;;;;;8.15;4.65;;;15.80;99.90;;;;;;4864312;29;20053;-68
2022/08/22 04:59:41;;;;;;;8.52;4.60;;;15.90;99.90;;;;;;4870067;29;20141;-68
2022/08/22 05:02:10;;;;;;;9.35;5.13;;;15.90;99.90;;;;;;4873618;29;20482;-68
2022/08/22 05:04:45;;;;;;;9.15;5.03;;;15.90;99.90;;;;;;4875578;29;20148;-68
2022/08/22 05:07:16;;;;;;;12.20;5.38;;;16.00;99.90;;;;;;4880388;29;20458;-68
2022/08/22 05:09:51;;;;;;;9.10;5.20;;;16.00;99.90;;;;;;4876224;29;20422;-68
2022/08/22 05:12:22;;;;;;;10.75;4.72;;;16.00;99.90;;;;;;4863254;29;20136;-68
2022/08/22 05:15:05;;;;;;;9.13;4.38;;;16.00;99.90;;;;;;4879905;29;20049;-68
2022/08/22 05:17:31;;;;;;;6.72;4.38;;;16.10;99.90;;;;;;4877069;29;20220;-69
2022/08/22 05:20:06;;;;;;;7.00;4.88;;;16.20;99.90;;;;;;4875927;29;20232;-68
2022/08/22 05:22:38;;;;;;;9.30;4.47;;;16.20;99.90;;;;;;4894109;29;20148;-68
2022/08/22 05:25:09;;;;;;;;;;;16.20;99.90;;;;;;4872975;29;20071;-69
2022/08/22 05:27:50;;;;;;;9.68;4.68;;;16.20;99.90;;;;;;4871653;29;20380;-68
2022/08/22 05:30:26;;;;;;;11.15;5.18;;;16.20;99.90;;;;;;4870282;29;20064;-69
2022/08/22 05:33:01;;;;;;;8.65;4.28;;;16.30;99.90;;;;;;4869793;29;20045;-68
2022/08/22 05:35:39;;;;;;;8.00;4.43;;;16.30;99.90;;;;;;4869159;29;20128;-69
2022/08/22 05:42:25;;;;;;;7.95;4.45;;;16.40;99.90;;;;;;4875497;29;20060;-68
2022/08/22 05:45:34;;;;;;;11.25;4.38;;;16.40;99.90;;;;;;4884086;29;20092;-69
2022/08/22 05:48:15;;;;;;;10.35;4.40;;;16.40;99.90;;;;;;4885504;29;20049;-69
2022/08/22 05:51:20;;;;;;;8.73;4.68;;;16.50;99.90;;;;;;4867600;29;20091;-67
2022/08/22 06:05:23;;;;;;;8.65;4.18;;;16.60;99.90;;;;;;4878516;29;20036;-68
2022/08/22 06:07:50;;;;;;;9.45;4.00;;;16.60;99.90;;;;;;4878475;29;20072;-68
2022/08/22 06:10:34;;;;;;;9.82;4.30;;;16.60;99.90;;;;;;4880153;29;20061;-68
2022/08/22 06:13:12;;;;;;;10.70;4.75;;;16.70;99.90;;;;;;4860923;29;20131;-68
2022/08/22 06:15:44;;;;;;;9.13;4.90;;;16.60;99.90;;;;;;4879908;29;20061;-68
2022/08/22 06:18:15;;;;;;;8.95;4.28;;;16.60;99.90;;;;;;4862546;29;20140;-68
2022/08/22 06:20:52;;;;;;;10.47;4.67;;;16.60;99.90;;;;;;4860250;29;20113;-69
2022/08/22 06:23:42;;;;;;;10.13;5.15;;;16.70;99.90;;;;;;4876998;29;20939;-69
2022/08/22 06:26:59;;;;;;;11.90;4.47;;;16.70;99.90;;;;;;4872969;29;20053;-68
2022/08/22 06:30:15;;;;;;;8.65;3.97;;;16.90;99.90;;;;;;4865393;29;20094;-68
2022/08/22 06:32:51;;;;;;;9.15;4.25;;;16.80;99.90;;;;;;4872171;29;20049;-68
2022/08/22 06:43:55;;;;;;;8.13;4.30;;;17.00;99.90;;;;;;4861409;29;20056;-68
2022/08/22 06:47:12;;;;;;;14.02;5.15;;;17.00;99.90;;;;;;4860990;29;20049;-68
2022/08/22 06:49:40;;;;;;;6.55;4.05;;;17.10;99.90;;;;;;4874009;29;20076;-68
2022/08/22 06:52:10;;;;;;;8.27;4.72;;;17.10;99.90;;;;;;4878471;29;20053;-69
2022/08/22 06:54:42;;;;;;;9.63;4.47;;;17.20;99.90;;;;;;4879493;29;20132;-68
2022/08/22 06:57:43;;;;;;;9.83;3.97;;;17.20;99.90;;;;;;4880389;29;20455;-68
2022/08/22 07:16:09;;;;;;;10.13;4.50;;;17.50;99.90;;;;;;4889746;29;20107;-68
2022/08/22 07:18:46;;;;;;;10.07;4.10;;;17.50;99.90;;;;;;4887756;29;20493;-68
2022/08/22 07:21:30;;;;;;;10.15;4.40;;;17.60;99.90;;;;;;4870210;29;20394;-69
2022/08/22 07:24:00;;;;;;;10.57;4.32;;;17.70;99.90;;;;;;4872400;29;20056;-68
2022/08/22 07:26:54;;;;;;;10.20;4.50;;;17.70;99.90;;;;;;4885519;29;20364;-69
2022/08/22 07:29:44;;;;;;;6.53;3.72;;;17.80;99.90;;;;;;4883879;29;20491;-68
2022/08/22 07:32:40;;;;;;;11.70;4.43;;;17.90;99.90;;;;;;4889358;29;20048;-68
2022/08/22 07:35:25;;;;;;;7.38;3.85;;;18.10;99.90;;;;;;4879233;29;20136;-69
2022/08/22 07:38:00;;;;;;;7.25;3.58;;;18.20;99.90;;;;;;4889972;29;20053;-68
2022/08/22 07:40:44;;;;;;;11.35;3.92;;;18.30;99.90;;;;;;4884489;29;20100;-69
2022/08/22 07:43:36;;;;;;;9.80;3.00;;;18.40;99.90;;;;;;4887566;29;20049;-68
2022/08/22 07:46:24;;;;;;;9.55;3.83;;;18.50;99.90;;;;;;4894621;29;20091;-68
2022/08/22 07:48:55;;;;;;;8.60;3.45;;;18.50;99.90;;;;;;4881291;29;20060;-69
2022/08/22 07:51:29;;;;;;;7.22;3.60;;;18.60;99.90;;;;;;4878666;29;20071;-69
2022/08/22 07:53:57;;;;;;;9.25;3.58;;;18.70;99.90;;;;;;4881406;29;20068;-69
2022/08/22 07:56:27;;;;;;;8.63;3.80;;;18.80;99.90;;;;;;4896245;29;20437;-68
2022/08/22 07:58:57;;;;;;;9.35;3.00;;;18.90;99.90;;;;;;4897296;29;20420;-69
2022/08/22 08:01:25;;;;;;;7.90;2.60;;;18.90;99.90;;;;;;4897836;29;20048;-69
2022/08/22 08:04:11;;;;;;;6.28;2.88;;;19.00;99.90;;;;;;4878085;29;20053;-68
2022/08/22 08:06:37;;;;;;;7.95;3.25;;;19.10;99.90;;;;;;4883989;29;20064;-68
2022/08/22 08:09:03;;;;;;;5.47;2.80;;;19.10;99.90;;;;;;4898108;29;20147;-68
2022/08/22 08:11:38;;;;;;;10.82;3.35;;;19.30;99.90;;;;;;4896529;29;20156;-68
2022/08/22 08:14:06;;;;;;;5.45;2.90;;;19.30;99.90;;;;;;4891857;29;20057;-68
2022/08/22 08:16:42;;;;;;;6.78;3.30;;;19.60;99.90;;;;;;4891651;29;20536;-68
2022/08/22 08:19:10;;;;;;;9.93;3.28;;;19.40;99.90;;;;;;4893629;29;20047;-68
2022/08/22 08:21:41;;;;;;;8.30;3.17;;;19.50;99.90;;;;;;4879769;29;20060;-68
2022/08/22 08:24:12;;;;;;;9.95;3.13;;;19.50;99.90;;;;;;4891597;29;20416;-68
2022/08/22 08:28:32;;;;;;;9.20;3.20;;;19.50;99.90;;;;;;4873031;29;20477;-68
2022/08/22 08:29:29;;;;;;;8.20;2.63;;;19.60;99.90;;;;;;4870395;29;20041;-68
2022/08/22 08:31:55;;;;;;;8.90;2.67;;;19.70;99.90;;;;;;4888687;29;20074;-68
2022/08/22 08:34:23;;;;;;;6.82;2.55;;;19.60;99.90;;;;;;4890980;29;20493;-65
2022/08/22 08:36:57;;;;;;;10.10;3.15;;;19.60;99.90;;;;;;4882748;29;20497;-65
2022/08/22 08:39:34;;;;;;;7.93;2.50;;;19.60;99.90;;;;;;4878310;29;20096;-65
2022/08/22 08:46:06;;;;;;;6.30;2.47;;;19.60;99.90;;;;;;4888100;29;20045;-65
2022/08/22 08:49:21;;;;;;;8.02;3.30;;;19.60;99.90;;;;;;4869556;29;20148;-66
2022/08/22 08:52:29;;;;;;;5.37;2.80;;;19.60;99.90;;;;;;4884728;29;20409;-65
2022/08/22 08:55:06;;;;;;;8.70;3.03;;;19.60;99.90;;;;;;4838643;29;20382;-66
2022/08/22 08:58:00;;;;;;;5.50;2.50;;;19.60;99.90;;;;;;4881177;29;20053;-66
2022/08/22 09:01:01;;;;;;;5.93;2.83;;;19.70;99.90;;;;;;4869183;29;20140;-65
2022/08/22 09:04:16;;;;;;;5.35;2.85;;;19.70;99.90;;;;;;4876091;29;20052;-66
2022/08/22 09:07:08;;;;;;;7.43;2.70;;;19.80;99.90;;;;;;4878516;29;20113;-65
2022/08/22 09:09:52;;;;;;;;;;;19.90;99.90;;;;;;4882681;29;20092;-66
2022/08/22 09:12:33;;;;;;;10.35;3.67;;;20.00;99.90;;;;;;4888397;29;19971;-66
2022/08/22 09:15:29;;;;;;;8.88;3.20;;;20.20;99.90;;;;;;4886012;29;20123;-67
2022/08/22 09:18:13;;;;;;;10.25;3.05;;;20.30;99.90;;;;;;4880607;29;20417;-67
2022/08/22 09:20:41;;;;;;;11.95;3.50;;;20.40;99.90;;;;;;4888212;29;20064;-67
2022/08/22 09:23:40;;;;;;;7.95;2.70;;;20.50;99.90;;;;;;4887567;29;20048;-67
2022/08/22 09:26:34;;;;;;;9.52;3.25;;;20.70;99.90;;;;;;4896437;29;20049;-67
2022/08/22 09:29:18;;;;;;;7.68;3.30;;;20.90;99.90;;;;;;4879095;29;20065;-67
2022/08/22 09:31:53;;;;;;;10.80;2.80;;;21.10;99.90;;;;;;4886792;29;20131;-67
2022/08/22 09:34:48;;;;;;;5.88;2.95;;;21.30;99.90;;;;;;4880219;29;20057;-67
2022/08/22 09:37:37;;;;;;;8.10;2.67;;;21.40;99.90;;;;;;4898124;29;20064;-67
2022/08/22 09:40:12;;;;;;;7.95;2.60;;;21.50;99.90;;;;;;4872254;29;20136;-68
2022/08/22 09:42:47;;;;;;;6.75;2.55;;;21.50;99.90;;;;;;4896359;29;20455;-68
2022/08/22 09:45:34;;;;;;;8.35;2.65;;;21.60;99.90;;;;;;4886181;29;20500;-68
2022/08/22 09:48:29;;;;;;;8.65;2.47;;;21.70;99.90;;;;;;4881596;29;20041;-67
2022/08/22 09:51:18;;;;;;;7.40;2.67;;;21.80;99.90;;;;;;4870032;29;20409;-67
2022/08/22 09:54:02;;;;;;;7.22;2.92;;;22.30;99.90;;;;;;4874054;29;20467;-67
2022/08/22 09:56:34;;;;;;;11.27;2.88;;;21.80;99.90;;;;;;4871381;29;20060;-67
2022/08/22 09:59:21;;;;;;;5.63;2.63;;;21.90;99.90;;;;;;4890013;29;20068;-65
2022/08/22 10:01:56;;;;;;;10.95;2.85;;;22.00;99.90;;;;;;4893622;29;20088;-67
2022/08/22 10:04:49;;;;;;;9.23;2.30;;;22.20;99.90;;;;;;4872325;29;20072;-67
2022/08/22 10:07:50;;;;;;;7.97;2.42;;;22.30;99.90;;;;;;4887182;29;20061;-67
2022/08/22 10:10:16;;;;;;;7.35;2.38;;;22.40;99.90;;;;;;4893829;29;20083;-66
2022/08/22 10:12:51;;;;;;;4.20;2.20;;;22.50;99.90;;;;;;4890424;29;20084;-66
2022/08/22 10:15:41;;;;;;;9.07;2.58;;;22.60;99.90;;;;;;4866853;29;20070;-65
2022/08/22 10:18:37;;;;;;;8.38;2.83;;;22.60;99.90;;;;;;4865728;29;20121;-65
2022/08/22 10:22:05;;;;;;;7.85;2.55;;;22.60;99.90;;;;;;4892848;29;20052;-66
2022/08/22 10:24:46;;;;;;;6.72;2.58;;;22.50;99.90;;;;;;4873373;29;20056;-66
2022/08/22 10:27:54;;;;;;;8.07;2.50;;;22.50;99.90;;;;;;4872363;29;20065;-67
2022/08/22 10:30:26;;;;;;;7.05;2.20;;;22.60;99.90;;;;;;4881153;29;20059;-67
2022/08/22 10:33:08;;;;;;;;;;;22.60;99.90;;;;;;4876064;29;20109;-66
2022/08/22 10:35:56;;;;;;;7.78;2.78;;;22.50;99.90;;;;;;4881946;29;19924;-66
2022/08/22 10:38:47;;;;;;;7.57;2.40;;;22.40;99.90;;;;;;4882821;29;20053;-66
2022/08/22 10:41:43;;;;;;;6.05;2.42;;;22.40;99.90;;;;;;4868986;29;20057;-66
2022/08/22 10:44:29;;;;;;;6.18;2.30;;;22.30;99.90;;;;;;4892739;29;20061;-66
2022/08/22 10:47:26;;;;;;;5.97;2.50;;;22.50;99.90;;;;;;4887857;29;20051;-66
2022/08/22 10:50:43;;;;;;;4.68;2.03;;;22.60;99.90;;;;;;4891980;29;20409;-66
2022/08/22 10:53:32;;;;;;;5.03;2.05;;;22.70;99.90;;;;;;4887480;29;20558;-66
2022/08/22 10:56:15;;;;;;;6.13;2.22;;;22.90;99.90;;;;;;4875770;29;20049;-66
2022/08/22 10:58:59;;;;;;;5.88;2.22;;;23.10;99.90;;;;;;4888819;29;20048;-67
2022/08/22 11:01:28;;;;;;;8.02;2.10;;;23.20;99.90;;;;;;4866728;29;20057;-67
2022/08/22 11:04:09;;;;;;;4.47;2.15;;;23.10;99.90;;;;;;4888232;29;20055;-66
2022/08/22 11:07:34;;;;;;;4.75;1.90;;;23.20;99.90;;;;;;4880178;29;20056;-66
2022/08/22 11:10:12;;;;;;;5.65;1.95;;;23.10;99.70;;;;;;4878502;29;20402;-66
2022/08/22 11:12:45;;;;;;;6.22;1.98;;;23.20;99.90;;;;;;4893164;29;20061;-66
2022/08/22 11:15:38;;;;;;;5.38;1.80;;;23.40;99.90;;;;;;4870576;29;20487;-66
2022/08/22 11:18:29;;;;;;;4.90;1.90;;;23.40;99.90;;;;;;4879307;29;20056;-66
2022/08/22 11:21:05;;;;;;;4.32;1.83;;;23.60;99.90;;;;;;4879002;29;20057;-66
2022/08/22 11:23:57;;;;;;;7.28;1.75;;;23.60;99.90;;;;;;4876426;29;20398;-66
2022/08/22 11:30:07;;;;;;;5.68;2.20;;;23.70;99.90;;;;;;4885478;29;20060;-67
2022/08/22 11:32:58;;;;;;;5.10;2.00;;;23.80;99.90;;;;;;4868487;29;20069;-67
2022/08/22 11:36:10;;;;;;;5.22;1.70;;;23.80;99.90;;;;;;4873171;29;20780;-67
2022/08/22 11:39:01;;;;;;;4.97;2.67;;;23.70;99.90;;;;;;4871138;29;20049;-67
2022/08/22 11:41:47;;;;;;;5.97;2.38;;;23.80;99.90;;;;;;4878490;29;20060;-67
2022/08/22 11:44:41;;;;;;;3.22;1.75;;;23.90;99.90;;;;;;4877590;29;20063;-67
2022/08/22 11:47:12;;;;;;;4.57;2.28;;;24.10;99.90;;;;;;4872533;29;20504;-67
2022/08/22 11:49:48;;;;;;;6.32;2.15;;;24.30;99.90;;;;;;4869973;29;20061;-67
2022/08/22 11:52:29;;;;;;;8.20;2.47;;;24.20;99.90;;;;;;4869490;29;20049;-67
2022/08/22 11:55:14;;;;;;;6.22;2.05;;;24.30;99.90;;;;;;4874430;29;20053;-66
2022/08/22 11:58:08;;;;;;;7.43;2.22;;;24.20;99.90;;;;;;4869183;29;20053;-64
2022/08/22 12:00:52;;;;;;;13.07;4.78;;;24.20;99.90;;;;;;4877392;29;20061;-66
2022/08/22 12:03:44;;;;;;;4.82;1.90;;;24.20;99.90;;;;;;4877668;29;20063;-66
2022/08/22 12:06:33;;;;;;;8.32;2.00;;;24.10;99.90;;;;;;4871354;29;20058;-66
2022/08/22 12:09:07;;;;;;;5.55;1.90;;;24.10;99.90;;;;;;4861064;29;20132;-66
2022/08/22 12:11:47;;;;;;;4.18;2.13;;;24.10;99.90;;;;;;4878009;29;20492;-67
2022/08/22 12:14:36;;;;;;;9.23;2.40;;;24.30;99.90;;;;;;4896154;29;20062;-66
2022/08/22 12:17:21;;;;;;;6.10;2.25;;;24.40;99.90;;;;;;4889324;29;20480;-66
2022/08/22 12:20:07;;;;;;;6.53;1.92;;;24.60;99.90;;;;;;4868740;29;20053;-65
2022/08/22 12:22:41;;;;;;;4.15;2.05;;;24.60;99.90;;;;;;4870477;29;20065;-67
2022/08/22 12:25:29;;;;;;;4.72;1.88;;;24.70;99.90;;;;;;4871549;29;20057;-66
2022/08/22 12:28:10;;;;;;;7.78;2.20;;;24.80;99.90;;;;;;4891892;29;20072;-65
2022/08/22 12:30:53;;;;;;;6.97;2.17;;;24.70;98.90;;;;;;4881445;29;20052;-66
2022/08/22 12:33:43;;;;;;;5.60;2.15;;;24.80;99.90;;;;;;4878422;29;20084;-66
2022/08/22 12:36:46;;;;;;;7.45;2.17;;;24.80;98.30;;;;;;4879603;29;20166;-66
2022/08/22 12:39:42;;;;;;;6.82;2.15;;;24.70;96.50;;;;;;4863082;29;20061;-66
2022/08/22 12:42:35;;;;;;;6.38;2.45;;;24.70;98.90;;;;;;4879107;29;20053;-65
2022/08/22 12:45:12;;;;;;;6.80;2.70;;;24.70;99.40;;;;;;4881370;29;20052;-65
2022/08/22 12:48:12;;;;;;;5.22;2.20;;;24.60;98.80;;;;;;4887314;29;20124;-66
2022/08/22 12:50:56;;;;;;;4.68;2.42;;;24.50;99.80;;;;;;4879254;29;20084;-65
2022/08/22 12:53:46;;;;;;;6.40;2.15;;;24.60;99.90;;;;;;4878245;29;20528;-66
2022/08/22 12:56:20;;;;;;;6.28;2.15;;;24.60;99.90;;;;;;4862106;29;20370;-66
2022/08/22 12:59:14;;;;;;;5.65;2.55;;;24.70;99.90;;;;;;4894201;29;20171;-66
2022/08/22 13:01:44;;;;;;;7.68;2.72;;;24.50;98.60;;;;;;4879030;29;20057;-66
2022/08/22 13:04:23;;;;;;;7.03;2.42;;;24.50;99.90;;;;;;4886362;29;20092;-67
2022/08/22 13:06:59;;;;;;;7.30;2.75;;;24.50;99.90;;;;;;4874491;29;20052;-67
2022/08/22 13:09:30;;;;;;;5.32;2.03;;;24.30;99.90;;;;;;4897094;29;20060;-66
2022/08/22 13:12:04;;;;;;;9.93;2.10;;;24.20;99.90;;;;;;4898339;29;20069;-65
2022/08/22 13:14:32;;;;;;;9.98;2.40;;;24.30;99.90;;;;;;4901096;29;20064;-66
2022/08/22 13:17:04;;;;;;;8.45;2.72;;;24.50;99.90;;;;;;4895218;29;20060;-65
2022/08/22 13:19:43;;;;;;;6.00;2.20;;;24.60;99.90;;;;;;4888391;29;20053;-67
2022/08/22 13:22:15;;;;;;;6.53;2.70;;;24.90;99.90;;;;;;4890471;29;20064;-66
2022/08/22 13:24:55;;;;;;;7.25;2.22;;;25.10;99.90;;;;;;4869755;29;20061;-66
2022/08/22 13:27:41;;;;;;;6.93;2.63;;;25.20;99.90;;;;;;4894043;29;20045;-66
2022/08/22 13:30:15;;;;;;;8.75;3.08;;;25.40;97.10;;;;;;4900683;29;20516;-65
2022/08/22 13:32:55;;;;;;;5.07;2.50;;;25.40;97.90;;;;;;4866561;29;20157;-66
2022/08/22 13:35:37;;;;;;;3.92;2.00;;;25.50;99.90;;;;;;4880788;29;20546;-67
2022/08/22 13:38:10;;;;;;;7.55;2.53;;;25.50;94.60;;;;;;4883958;29;20584;-66
2022/08/22 13:40:38;;;;;;;5.72;2.42;;;25.50;98.00;;;;;;4898418;29;20056;-66
2022/08/22 13:43:12;;;;;;;6.28;2.67;;;25.40;97.30;;;;;;4898834;29;20104;-67
2022/08/22 13:45:47;;;;;;;7.55;2.65;;;25.40;98.10;;;;;;4898768;29;20056;-67
2022/08/22 13:48:14;;;;;;;5.72;2.35;;;25.40;99.90;;;;;;4903575;29;20052;-66
2022/08/22 13:51:09;;;;;;;8.00;2.40;;;25.50;99.80;;;;;;4901236;29;20052;-66
2022/08/22 13:53:45;;;;;;;6.05;2.33;;;25.50;97.40;;;;;;4889665;29;20056;-66
2022/08/22 13:56:18;;;;;;;7.47;2.33;;;25.50;92.00;;;;;;4891667;29;20048;-67
2022/08/22 13:58:52;;;;;;;5.05;2.38;;;25.60;88.70;;;;;;4882973;29;20052;-66
2022/08/22 14:01:23;;;;;;;6.57;2.83;;;25.60;88.70;;;;;;4882787;29;20048;-66
2022/08/22 14:03:56;;;;;;;7.50;2.25;;;25.60;91.80;;;;;;4890216;29;20062;-67
2022/08/22 14:06:56;;;;;;;9.50;3.15;;;25.60;90.70;;;;;;4900012;29;20425;-67
2022/08/22 14:09:48;;;;;;;6.55;2.30;;;25.60;92.60;;;;;;4895853;29;20247;-66
2022/08/22 14:12:28;;;;;;;6.13;2.53;;;25.70;92.00;;;;;;4879788;29;20077;-67
2022/08/22 14:14:58;;;;;;;6.63;2.72;;;25.70;85.60;;;;;;4871548;29;20064;-67
2022/08/22 14:17:29;;;;;;;4.65;2.45;;;25.80;91.20;;;;;;4886361;29;20057;-67
2022/08/22 14:20:00;;;;;;;6.25;2.40;;;25.90;93.00;;;;;;4865300;29;20057;-67
2022/08/22 14:22:31;;;;;;;8.23;2.55;;;25.80;94.90;;;;;;4871483;29;20049;-67
2022/08/22 14:25:00;;;;;;;6.30;2.57;;;25.70;92.30;;;;;;4869261;29;20060;-66
2022/08/22 14:27:29;;;;;;;7.93;2.63;;;25.70;93.40;;;;;;4876651;29;20779;-68
2022/08/22 14:30:17;;;;;;;4.28;2.38;;;25.70;92.80;;;;;;4876772;29;20075;-67
2022/08/22 14:32:52;;;;;;;4.65;2.25;;;25.70;91.60;;;;;;4869824;29;20049;-67
2022/08/22 14:35:25;;;;;;;9.55;2.60;;;25.60;93.10;;;;;;4869546;29;20050;-68
2022/08/22 14:37:55;;;;;;;8.88;2.25;;;25.60;91.80;;;;;;4874921;29;20172;-66
2022/08/22 14:40:32;;;;;;;7.28;3.10;;;25.40;93.10;;;;;;4879994;29;20538;-66
2022/08/22 14:43:06;;;;;;;6.35;2.58;;;25.30;94.10;;;;;;4878455;29;20056;-66
2022/08/22 14:45:36;;;;;;;10.88;3.03;;;25.20;94.50;;;;;;4880077;29;20053;-67
2022/08/22 14:48:28;;;;;;;4.95;2.70;;;25.20;95.50;;;;;;4867890;29;20057;-66
2022/08/22 14:51:02;;;;;;;4.50;2.60;;;25.20;96.70;;;;;;4868255;29;20057;-66
2022/08/22 14:53:34;;;;;;;6.10;2.60;;;25.20;97.30;;;;;;4873699;29;20056;-66
2022/08/22 14:56:23;;;;;;;7.65;2.60;;;25.20;97.90;;;;;;4871687;29;20060;-67
2022/08/22 14:59:06;;;;;;;5.90;2.28;;;25.20;98.10;;;;;;4871834;29;20132;-66
2022/08/22 15:01:50;;;;;;;4.80;2.50;;;25.10;97.00;;;;;;4871711;29;20509;-66
2022/08/22 15:04:32;;;;;;;5.72;2.17;;;25.10;95.80;;;;;;4872467;29;20064;-66
2022/08/22 15:07:01;;;;;;;4.85;2.70;;;25.20;97.60;;;;;;4879759;29;20088;-66
2022/08/22 15:10:17;;;;;;;6.20;2.47;;;25.20;96.60;;;;;;4879166;29;20557;-66
2022/08/22 15:12:52;;;;;;;5.68;2.72;;;25.10;95.50;;;;;;4865116;29;20053;-66
2022/08/22 15:15:36;;;;;;;5.80;2.85;;;25.10;95.30;;;;;;4855682;29;20048;-66
2022/08/22 15:18:15;;;;;;;5.47;2.58;;;25.20;93.70;;;;;;4842637;29;20044;-66
2022/08/22 15:20:41;;;;;;;6.05;2.35;;;25.10;96.60;;;;;;4868754;29;20081;-67
2022/08/22 15:23:19;;;;;;;6.13;2.47;;;25.20;98.30;;;;;;4860298;29;20521;-66
2022/08/22 15:29:06;;;;;;;6.03;2.22;;;25.20;99.10;;;;;;4868236;29;20077;-67
2022/08/22 15:31:32;;;;;;;4.25;2.60;;;25.20;99.90;;;;;;4859357;29;20140;-67
2022/08/22 15:34:18;;;;;;;6.13;2.30;;;25.10;99.80;;;;;;4879255;29;20049;-66
2022/08/22 15:37:15;;;;;;;7.32;2.47;;;25.00;99.90;;;;;;4857997;29;20578;-67
2022/08/22 15:40:03;;;;;;;4.93;2.60;;;25.00;99.90;;;;;;4853486;29;20132;-67